Weather at Watson River Airport

Public forecast

Using degrees Celsius for public forecast. Weather courtesy of forecast.io.

Closest aviation weather report (METAR) to Watson River Airport

Closest report is Gove Airport, 322.4 nm (597.1 km) W.

2024/02/29 08:30 (retrieved 28 minutes ago)

YPGV 290830Z AUTO 32007KT 9999 // NCD 29/26 Q1008 RF000/0000

Closest aviation forecast (TAF) to Watson River Airport

Closest forecast is Gove Airport, 322.4 nm (597.1 km) W.

2024/02/29 07:00 Ammendment (retrieved 2 hours ago)

TAF AMD YPGV 290710Z 2907/2920 35012KT 9999 SCT020 FM290900 VRB05KT 9999 SCT015 INTER 2907/2909 2000 SHRA BKN012